Quechee, Vermont
Current Conditions -  °F | °C
As of 6:53 AM on Monday 22 Dec 2014 (Local Time) from KLEB Reporting Station
Overcast Overcast  
Wind Chill: 28°   Ceiling: 3700
Heat Index: 28°   Visibility: 8mi
Dew Point: 24°   Wind: 0mph
Humidity: 85%   Direction: NA
Pressure: 30.37"   Gusts: NA
Location:  43.65°N, 72.42°W
Report Text: KLEB 221153Z 00000KT 8SM FEW020 OVC037 M02/M04 A3037 RMK AO2 SLP295 70002 T10221044 11017 21022 51007
Loading
Personal Weather Stations






























Interactive Weather Map New forecast layout! Learn more

10-Day Weather Forecast

Advertisements
Track Severe Weather on mobile